Bookmark and Share
Track history (hours):
 

Mary Ann Hudson

More information available from US FCC via Universal Licensing System and Coast Guard Vessel Documentation Center.

Last reported at 2014-Apr-17 10:33 UTC. Time now 2014-Apr-19 19:42 UTC.
Position N 29°37' W 089°54'.

Type: Cargo ship. MMSI: 366163000.

NotesDate/timePositionNaut miles runAvg speedWind from/ knotsBaromVisibWave heightAir tempDewpointWater temp
2014-Apr-17 10:33N 29°37' W 089°54'0 0.0
2014-Apr-17 09:27N 29°37' W 089°54'0 0.0
2014-Apr-17 08:33N 29°37' W 089°54'7 6.8
2014-Apr-17 07:27N 29°43' W 089°59'10 9.4
2014-Apr-17 06:25N 29°52' W 089°55'16 3.2
2014-Apr-17 01:33N 29°55' W 090°13'1413.6
2014-Apr-17 00:33N 29°60' W 090°27'1313.1
2014-Apr-16 23:33N 30°01' W 090°42'1111.4
2014-Apr-16 22:33N 30°06' W 090°55'  
2014-Apr-13 05:33N 30°04' W 090°53'6 6.2
2014-Apr-13 04:33N 30°01' W 090°46'9 8.8
2014-Apr-13 03:33N 30°02' W 090°36'7 7.4
2014-Apr-13 02:33N 30°00' W 090°28'9 8.8
2014-Apr-13 01:33N 29°56' W 090°19'243 9.5
2014-Apr-12 00:00N 28°06' W 086°12'19513.2 110 / 111020.010.8 1.023.918.1
2014-Apr-11 09:12N 27°42' W 082°33'711.4
2014-Apr-11 08:33N 27°48' W 082°29'8 7.7
2014-Apr-11 07:33N 27°55' W 082°25'0 0.0
2014-Apr-11 06:32N 27°55' W 082°25'0 0.0
2014-Apr-11 05:32N 27°55' W 082°25'0 0.0
2014-Apr-11 04:32N 27°55' W 082°25'0 0.0
2014-Apr-11 03:32N 27°55' W 082°25'0 0.0
2014-Apr-11 02:32N 27°55' W 082°25'0 0.0
2014-Apr-11 01:32N 27°55' W 082°25'0 0.0
2014-Apr-11 00:32N 27°55' W 082°25'0 0.0
2014-Apr-10 23:32N 27°55' W 082°25'0 0.0
2014-Apr-10 22:32N 27°55' W 082°25'0 0.0
2014-Apr-10 21:32N 27°55' W 082°25'0 0.0
2014-Apr-10 20:32N 27°55' W 082°25'0 0.0
2014-Apr-10 19:32N 27°55' W 082°25'0 0.0
2014-Apr-10 18:32N 27°55' W 082°25'0 0.0
2014-Apr-10 17:32N 27°55' W 082°25'0 0.0
2014-Apr-10 16:32N 27°55' W 082°25'0 0.0
2014-Apr-10 15:29N 27°55' W 082°25'0 0.0
2014-Apr-10 14:32N 27°55' W 082°25'0 0.0
2014-Apr-10 13:32N 27°55' W 082°25'0 0.0
2014-Apr-10 12:32N 27°55' W 082°25'0 0.0
2014-Apr-10 11:32N 27°55' W 082°25'0 0.0
2014-Apr-10 10:32N 27°55' W 082°25'0 0.0
2014-Apr-10 09:32N 27°55' W 082°25'0 0.0
2014-Apr-10 08:32N 27°55' W 082°25'0 0.0
2014-Apr-10 07:32N 27°55' W 082°25'0 0.0
2014-Apr-10 06:32N 27°55' W 082°25'0 0.0
2014-Apr-10 05:32N 27°55' W 082°25'0 0.0
2014-Apr-10 04:32N 27°55' W 082°25'0 0.0
2014-Apr-10 03:32N 27°55' W 082°25'0 0.0
2014-Apr-10 02:32N 27°55' W 082°25'0 0.0
2014-Apr-10 01:32N 27°55' W 082°25'0 0.0
2014-Apr-10 00:32N 27°55' W 082°25'0 0.0
2014-Apr-09 23:32N 27°55' W 082°25'0 0.0
2014-Apr-09 22:33N 27°55' W 082°25'0 0.0
2014-Apr-09 21:32N 27°55' W 082°25'0 0.0
2014-Apr-09 20:32N 27°55' W 082°25'0 0.0
2014-Apr-09 19:32N 27°55' W 082°25'0 0.0
2014-Apr-09 18:32N 27°55' W 082°25'0 0.0
2014-Apr-09 17:32N 27°55' W 082°25'0 0.0
2014-Apr-09 16:32N 27°55' W 082°25'0 0.0
2014-Apr-09 15:33N 27°55' W 082°25'6 5.8
2014-Apr-09 14:33N 27°49' W 082°27'2 2.2
2014-Apr-09 13:28N 27°48' W 082°25'0 0.0
2014-Apr-09 12:28N 27°48' W 082°25'0 0.0
2014-Apr-09 11:31N 27°48' W 082°25'0 0.0
2014-Apr-09 10:31N 27°48' W 082°25'0 0.0
2014-Apr-09 09:31N 27°48' W 082°25'0 0.0
2014-Apr-09 08:32N 27°48' W 082°25'0 0.0
2014-Apr-09 07:28N 27°48' W 082°25'0 0.0
2014-Apr-09 06:31N 27°48' W 082°25'0 0.0
2014-Apr-09 05:28N 27°48' W 082°25'0 0.0
2014-Apr-09 04:31N 27°48' W 082°25'0 0.0
2014-Apr-09 03:31N 27°48' W 082°25'0 0.0
2014-Apr-09 02:28N 27°48' W 082°25'0 0.0
2014-Apr-09 01:28N 27°48' W 082°25'0 0.0
2014-Apr-09 00:31N 27°48' W 082°25'0 0.0
2014-Apr-08 23:32N 27°48' W 082°25'0 0.0
2014-Apr-08 22:28N 27°48' W 082°25'0 0.0
2014-Apr-08 21:28N 27°48' W 082°25'0 0.0
2014-Apr-08 20:28N 27°48' W 082°25'0 0.0
2014-Apr-08 19:31N 27°48' W 082°25'0 0.0
2014-Apr-08 18:31N 27°48' W 082°25'0 0.0
2014-Apr-08 17:31N 27°48' W 082°25'0 0.0
2014-Apr-08 16:28N 27°48' W 082°25'0 0.0
2014-Apr-08 15:31N 27°48' W 082°25'0 0.0
2014-Apr-08 14:31N 27°48' W 082°25'0 0.0
2014-Apr-08 13:28N 27°48' W 082°25'0 0.0
2014-Apr-08 12:32N 27°48' W 082°25'0 0.0
2014-Apr-08 11:32N 27°48' W 082°25'0 0.0
2014-Apr-08 10:29N 27°48' W 082°25'0 0.0
2014-Apr-08 09:28N 27°48' W 082°25'0 0.0
2014-Apr-08 08:28N 27°48' W 082°25'0 0.0
2014-Apr-08 07:28N 27°48' W 082°25'0 0.0
2014-Apr-08 06:31N 27°48' W 082°25'0 0.0
2014-Apr-08 05:31N 27°48' W 082°25'0 0.0
2014-Apr-08 04:28N 27°48' W 082°25'0 0.0
2014-Apr-08 03:28N 27°48' W 082°25'0 0.0
2014-Apr-08 02:31N 27°48' W 082°25'0 0.0
2014-Apr-08 01:32N 27°48' W 082°25'0 0.0
2014-Apr-08 00:29N 27°48' W 082°25'0 0.0
2014-Apr-07 23:32N 27°48' W 082°25'0 0.0
2014-Apr-07 22:31N 27°48' W 082°25'0 0.0
2014-Apr-07 21:31N 27°48' W 082°25'0 0.0
2014-Apr-07 20:25N 27°48' W 082°25'0 0.0
2014-Apr-07 19:31N 27°48' W 082°25'0 0.0
2014-Apr-07 17:28N 27°48' W 082°25'0 0.0
2014-Apr-07 16:31N 27°48' W 082°25'0 0.0
2014-Apr-07 15:31N 27°48' W 082°25'0 0.0
2014-Apr-07 14:28N 27°48' W 082°25'0 0.0
2014-Apr-07 13:28N 27°48' W 082°25'0 0.0
2014-Apr-07 12:31N 27°48' W 082°25'0 0.0
2014-Apr-07 11:31N 27°48' W 082°25'  

Dump ship's entire track history

sailing weather and tide predictions

Mary Ann Hudson — KSDF — position and weather